Time;durP1;ratioP1;P1;durP2;ratioP2;P2;SDS_P1;SDS_P2;PMS_P1;PMS_P2;Temp;Humidity;BMP_temperature;BMP_pressure;BME280_temperature;BME280_humidity;BME280_pressure;Samples;Min_cycle;Max_cycle;Signal;HPM_P1;HPM_P2
2021/04/28 00:00:47;;;;;;;11.35;7.60;;;;;;;30.88;56.84;101135.19;5035524;28;66459;-38
2021/04/28 00:03:17;;;;;;;12.80;7.60;;;;;;;31.00;56.68;101135.34;5042915;28;69290;-38
2021/04/28 00:05:47;;;;;;;33.70;8.60;;;;;;;30.99;57.46;101139.09;5036193;28;65948;-38
2021/04/28 00:08:16;;;;;;;14.80;7.68;;;;;;;31.03;57.84;101145.75;5045948;28;69205;-37
2021/04/28 00:10:47;;;;;;;15.35;8.07;;;;;;;31.07;57.35;101147.00;5046237;28;65472;-38
2021/04/28 00:13:17;;;;;;;11.07;8.18;;;;;;;31.08;58.01;101145.94;5037251;28;70518;-38
2021/04/28 00:15:51;;;;;;;12.55;9.55;;;;;;;31.10;59.40;101151.97;5035722;28;65799;-37
2021/04/28 00:18:21;;;;;;;22.92;9.20;;;;;;;31.18;59.10;101148.19;5034202;28;70080;-40
2021/04/28 00:20:52;;;;;;;18.60;8.88;;;;;;;31.24;59.64;101157.34;5035686;28;65788;-38
2021/04/28 00:23:22;;;;;;;11.45;8.70;;;;;;;31.26;59.89;101150.66;5038028;28;70148;-37
2021/04/28 00:25:52;;;;;;;13.55;8.65;;;;;;;31.30;59.11;101153.75;5035978;28;65490;-41
2021/04/28 00:28:22;;;;;;;17.05;8.32;;;;;;;31.32;59.61;101154.38;5039263;28;69415;-37
2021/04/28 00:31:00;;;;;;;10.35;7.60;;;;;;;31.38;59.53;101165.22;5042820;28;66078;-38
2021/04/28 00:33:29;;;;;;;18.52;9.00;;;;;;;31.39;59.88;101166.03;5037378;28;70173;-37
2021/04/28 00:36:09;;;;;;;20.25;7.95;;;;;;;31.49;60.04;101166.41;5039525;28;65510;-36
2021/04/28 00:38:40;;;;;;;11.98;7.97;;;;;;;31.54;59.83;101171.19;5037143;28;70182;-38
2021/04/28 00:41:11;;;;;;;13.77;7.90;;;;;;;31.56;59.45;101178.03;5047406;28;65064;-37
2021/04/28 00:43:40;;;;;;;9.10;7.38;;;;;;;31.55;59.05;101173.66;5044119;28;70045;-38
2021/04/28 00:46:10;;;;;;;20.52;7.90;;;;;;;31.63;58.69;101178.00;5039606;28;65289;-37
2021/04/28 00:48:41;;;;;;;21.13;7.50;;;;;;;31.66;58.82;101171.31;5040865;28;69011;-37
2021/04/28 00:51:12;;;;;;;13.63;6.93;;;;;;;31.67;58.78;101176.50;5041687;28;66290;-36
2021/04/28 00:53:43;;;;;;;9.50;7.10;;;;;;;31.65;58.29;101175.91;5044019;28;69615;-36
2021/04/28 00:56:13;;;;;;;15.52;7.93;;;;;;;31.73;58.04;101182.94;5031991;28;65992;-36
2021/04/28 00:58:43;;;;;;;10.93;7.20;;;;;;;31.70;57.92;101178.78;5039570;28;69160;-36
2021/04/28 01:01:14;;;;;;;15.02;7.20;;;;;;;31.78;57.83;101180.38;5035419;28;65902;-37
2021/04/28 01:03:48;;;;;;;11.27;7.32;;;;;;;31.81;58.12;101185.38;5046978;28;70038;-37
2021/04/28 01:06:18;;;;;;;10.95;7.03;;;;;;;31.80;57.82;101189.16;5048083;28;66402;-36
2021/04/28 01:08:49;;;;;;;16.85;7.07;;;;;;;31.82;57.86;101192.47;5038855;28;70241;-37
2021/04/28 01:11:20;;;;;;;11.13;7.43;;;;;;;31.86;57.46;101201.00;5037622;28;65909;-36
2021/04/28 01:14:01;;;;;;;17.02;7.05;;;;;;;31.88;57.24;101199.75;5046531;28;69208;-36
2021/04/28 01:16:32;;;;;;;7.45;6.70;;;;;;;31.88;57.39;101202.44;5041797;28;66273;-36
2021/04/28 01:19:06;;;;;;;9.98;6.75;;;;;;;31.92;57.00;101206.41;5051978;28;69590;-38
2021/04/28 01:21:44;;;;;;;12.45;7.55;;;;;;;31.94;57.32;101212.44;5022288;28;66255;-37
2021/04/28 01:24:15;;;;;;;7.97;7.20;;;;;;;31.98;57.04;101219.13;5047937;28;70430;-37
2021/04/28 01:26:53;;;;;;;7.35;6.65;;;;;;;32.00;56.95;101222.41;5012327;28;65931;-37
2021/04/28 01:29:25;;;;;;;10.70;6.78;;;;;;;32.00;56.66;101219.69;5046693;28;69224;-38
2021/04/28 01:31:58;;;;;;;10.32;7.38;;;;;;;31.90;56.46;101204.94;5041953;28;66977;-37
2021/04/28 01:34:28;;;;;;;8.57;6.68;;;;;;;32.01;56.50;101215.97;5046128;28;70593;-36
2021/04/28 01:36:59;;;;;;;13.55;6.63;;;;;;;32.01;56.50;101213.25;5044620;28;67151;-36
2021/04/28 01:39:32;;;;;;;7.45;6.07;;;;;;;32.09;56.25;101222.97;5031875;28;69406;-36
2021/04/28 01:42:05;;;;;;;8.63;6.68;;;;;;;32.08;56.38;101228.63;5023519;28;66508;-36
2021/04/28 01:44:36;;;;;;;7.65;6.85;;;;;;;32.09;55.92;101216.72;5042980;28;70525;-36
2021/04/28 01:47:07;;;;;;;7.05;6.45;;;;;;;32.14;55.85;101216.91;5033461;28;65620;-36
2021/04/28 01:49:38;;;;;;;7.15;6.50;;;;;;;32.18;56.04;101215.38;5045620;28;70268;-36
2021/04/28 01:52:09;;;;;;;8.55;7.00;;;;;;;32.22;55.46;101217.44;5042252;28;65307;-37
2021/04/28 01:54:40;;;;;;;8.15;6.47;;;;;;;32.25;55.73;101221.59;5038555;28;70199;-36
2021/04/28 01:57:10;;;;;;;9.85;6.65;;;;;;;32.16;55.90;101203.94;5034087;28;66090;-36
2021/04/28 02:00:00;;;;;;;7.50;6.45;;;;;;;32.29;55.44;101225.56;5036610;28;70191;-36
2021/04/28 02:02:50;;;;;;;7.35;6.63;;;;;;;32.32;55.53;101219.69;5040828;28;65961;-36
2021/04/28 02:05:25;;;;;;;7.50;6.60;;;;;;;32.36;55.55;101225.47;5038632;28;69905;-36
2021/04/28 02:07:54;;;;;;;7.32;6.65;;;;;;;32.34;55.50;101220.25;5022543;28;64966;-36
2021/04/28 02:10:25;;;;;;;12.35;6.97;;;;;;;32.41;54.91;101229.19;5042822;28;70415;-36
2021/04/28 02:13:15;;;;;;;7.75;6.78;;;;;;;32.43;55.07;101224.38;5039873;28;66159;-36
2021/04/28 02:15:48;;;;;;;7.35;6.75;;;;;;;32.47;54.83;101236.47;5041121;28;70406;-37
2021/04/28 02:18:22;;;;;;;7.07;6.50;;;;;;;32.51;54.94;101222.44;5038720;28;66197;-36
2021/04/28 02:20:54;;;;;;;;;;;;;;;32.43;54.95;101221.66;5038031;28;69493;-37
2021/04/28 02:24:00;;;;;;;7.50;6.45;;;;;;;32.53;54.88;101218.47;5046134;28;66479;-42
2021/04/28 02:26:31;;;;;;;9.57;6.50;;;;;;;32.58;54.29;101228.66;5037165;28;70112;-36
2021/04/28 02:29:01;;;;;;;7.65;6.30;;;;;;;32.60;54.84;101221.13;5045851;28;66037;-37
2021/04/28 02:31:31;;;;;;;6.85;6.35;;;;;;;32.62;54.43;101219.00;5040514;28;69338;-37
2021/04/28 02:34:05;;;;;;;7.03;6.43;;;;;;;32.65;54.92;101223.97;5047580;28;65519;-37
2021/04/28 02:36:57;;;;;;;7.53;6.63;;;;;;;32.58;54.02;101193.34;5032337;28;69127;-37
2021/04/28 02:40:09;;;;;;;6.63;5.90;;;;;;;32.60;54.22;101197.50;5042919;28;65682;-37
2021/04/28 02:42:46;;;;;;;7.25;6.55;;;;;;;32.77;54.23;101214.03;5007190;28;69338;-36
2021/04/28 02:45:21;;;;;;;7.28;6.68;;;;;;;32.81;53.85;101217.13;5041837;28;66835;-38
2021/04/28 02:47:55;;;;;;;12.27;6.57;;;;;;;32.83;53.83;101212.31;5041696;28;70112;-37
2021/04/28 02:50:29;;;;;;;6.55;5.97;;;;;;;32.73;53.85;101185.66;5048185;28;66754;-36
2021/04/28 02:53:15;;;;;;;6.97;6.38;;;;;;;32.81;53.63;101196.22;5044265;28;70383;-37
2021/04/28 02:55:47;;;;;;;7.03;6.38;;;;;;;32.87;53.49;101194.50;5035610;28;66701;-37
2021/04/28 02:58:24;;;;;;;6.43;5.90;;;;;;;32.93;53.65;101194.44;5013309;28;70247;-36
2021/04/28 03:01:05;;;;;;;6.88;6.25;;;;;;;32.96;53.31;101189.56;5034637;28;65857;-36
2021/04/28 03:03:39;;;;;;;7.07;6.47;;;;;;;32.98;53.25;101184.75;5042527;28;69234;-35
2021/04/28 03:06:18;;;;;;;7.55;6.88;;;;;;;33.01;53.29;101189.75;5043044;28;66227;-33
2021/04/28 03:08:59;;;;;;;8.68;6.43;;;;;;;33.03;53.22;101193.09;5042535;28;69736;-33
2021/04/28 03:11:30;;;;;;;6.72;6.22;;;;;;;33.03;53.34;101193.09;5048885;28;65886;-34
2021/04/28 03:14:13;;;;;;;7.45;6.82;;;;;;;33.09;53.08;101186.72;5049208;28;69151;-34
2021/04/28 03:16:43;;;;;;;8.77;5.85;;;;;;;33.10;52.83;101189.25;5032475;28;66035;-33
2021/04/28 03:19:15;;;;;;;7.10;6.35;;;;;;;33.15;53.08;101185.81;5037551;28;70308;-34
2021/04/28 03:21:48;;;;;;;;;;;;;;;33.09;53.25;101181.31;5048555;28;66171;-33
2021/04/28 03:24:18;;;;;;;;;;;;;;;33.17;52.85;101178.28;5042781;28;69799;-34
2021/04/28 03:26:52;;;;;;;6.45;5.85;;;;;;;33.24;52.78;101183.59;5038055;28;66215;-33
2021/04/28 03:29:23;;;;;;;6.68;6.28;;;;;;;33.25;52.33;101177.97;5044726;28;69228;-34
2021/04/28 03:31:54;;;;;;;6.33;5.93;;;;;;;33.27;52.62;101181.28;5034404;28;66396;-34
2021/04/28 03:34:25;;;;;;;7.07;6.27;;;;;;;33.29;52.57;101171.00;5029776;28;69406;-34
2021/04/28 03:36:55;;;;;;;7.05;6.45;;;;;;;33.30;52.55;101172.66;5017542;28;65422;-33
2021/04/28 03:39:36;;;;;;;6.30;5.82;;;;;;;33.32;52.54;101165.13;5040555;28;69881;-34
2021/04/28 03:42:06;;;;;;;6.78;6.28;;;;;;;33.35;52.43;101152.94;5049349;28;65780;-34
2021/04/28 03:44:39;;;;;;;7.25;6.40;;;;;;;33.39;52.07;101162.28;5034697;28;69839;-34
2021/04/28 03:47:10;;;;;;;7.28;6.70;;;;;;;33.40;52.13;101154.97;5039448;28;66201;-34
2021/04/28 03:49:46;;;;;;;6.78;6.28;;;;;;;33.44;52.10;101156.16;5038072;28;69338;-34
2021/04/28 03:52:16;;;;;;;7.30;6.25;;;;;;;33.46;52.28;101156.75;5043919;28;66405;-33
2021/04/28 03:55:12;;;;;;;6.78;6.25;;;;;;;33.46;51.91;101149.44;5046968;28;68872;-33
2021/04/28 03:57:43;;;;;;;10.00;6.27;;;;;;;33.46;52.21;101148.59;5041471;28;65341;-34
2021/04/28 04:00:15;;;;;;;7.78;7.07;;;;;;;33.51;51.94;101155.00;5037909;28;69937;-34
2021/04/28 04:02:54;;;;;;;6.57;6.07;;;;;;;33.52;51.99;101151.25;5038397;28;66145;-34
2021/04/28 04:05:43;;;;;;;7.15;6.63;;;;;;;33.57;51.96;101145.09;5040413;28;69836;-34
2021/04/28 04:08:28;;;;;;;7.00;6.40;;;;;;;33.57;51.81;101134.22;5037833;28;66786;-34
2021/04/28 04:11:00;;;;;;;6.60;6.00;;;;;;;33.60;51.67;101133.78;5043919;28;72595;-34
2021/04/28 04:13:32;;;;;;;6.97;6.38;;;;;;;33.63;51.60;101137.91;5049530;28;65306;-34
2021/04/28 04:16:04;;;;;;;6.90;6.30;;;;;;;33.65;51.72;101119.47;5040067;28;70660;-34
2021/04/28 04:18:35;;;;;;;7.50;6.80;;;;;;;33.66;51.79;101116.53;5046507;28;66301;-33
2021/04/28 04:21:05;;;;;;;6.38;5.97;;;;;;;33.67;51.74;101118.16;5045478;28;70073;-34
2021/04/28 04:23:37;;;;;;;6.90;6.25;;;;;;;33.68;51.77;101117.09;5043741;28;66331;-34
2021/04/28 04:26:34;;;;;;;6.85;6.45;;;;;;;33.73;51.53;101124.56;5043913;28;69524;-34
2021/04/28 04:29:05;;;;;;;7.40;6.47;;;;;;;33.74;51.45;101116.19;5039215;28;65155;-33
2021/04/28 04:31:43;;;;;;;9.57;6.13;;;;;;;33.77;51.52;101109.44;5033493;28;69949;-33
2021/04/28 04:34:34;;;;;;;7.70;7.20;;;;;;;33.83;51.32;101104.97;5055940;28;66229;-33
2021/04/28 04:37:22;;;;;;;7.20;6.75;;;;;;;33.84;51.48;101106.59;5039417;28;70364;-34
2021/04/28 04:40:10;;;;;;;7.03;6.57;;;;;;;33.87;51.35;101100.69;5036044;28;65488;-34
2021/04/28 04:42:53;;;;;;;7.85;7.28;;;;;;;33.88;51.29;101091.44;5044409;28;70164;-34
2021/04/28 04:45:56;;;;;;;7.50;6.90;;;;;;;33.91;51.22;101099.16;5032107;28;65424;-34
2021/04/28 04:48:26;;;;;;;7.95;7.28;;;;;;;33.81;51.04;101080.69;5042259;28;69383;-34
2021/04/28 04:50:55;;;;;;;7.45;6.85;;;;;;;33.96;50.94;101089.22;5048729;28;65696;-34
2021/04/28 04:53:25;;;;;;;7.30;6.80;;;;;;;33.99;50.87;101087.91;5038326;28;70631;-33
2021/04/28 04:55:55;;;;;;;7.55;7.07;;;;;;;34.00;50.99;101079.50;5049001;28;66502;-34
2021/04/28 04:58:25;;;;;;;8.13;7.43;;;;;;;34.01;51.12;101075.72;5043714;28;69284;-34
2021/04/28 05:00:55;;;;;;;7.80;7.10;;;;;;;34.03;51.14;101073.59;5030061;28;65896;-35
2021/04/28 05:03:24;;;;;;;7.75;7.15;;;;;;;34.04;50.92;101058.09;5044249;28;70534;-33
2021/04/28 05:05:55;;;;;;;7.07;6.68;;;;;;;34.06;50.93;101061.44;5042390;28;66940;-34
2021/04/28 05:08:24;;;;;;;7.70;7.00;;;;;;;34.10;50.81;101059.06;5044092;28;69860;-33
2021/04/28 05:10:55;;;;;;;7.78;7.20;;;;;;;34.11;50.76;101061.56;5042427;28;65899;-33
2021/04/28 05:13:25;;;;;;;6.75;6.35;;;;;;;34.13;50.78;101050.41;5048796;28;69821;-34
2021/04/28 05:15:57;;;;;;;8.13;7.25;;;;;;;34.12;50.92;101038.69;5050668;28;65222;-34
2021/04/28 05:18:27;;;;;;;7.28;6.78;;;;;;;34.15;50.90;101040.94;5042729;28;69302;-34
2021/04/28 05:20:59;;;;;;;7.85;7.22;;;;;;;34.18;50.77;101043.19;5047156;28;66242;-34
2021/04/28 05:23:28;;;;;;;7.68;7.18;;;;;;;34.19;50.49;101033.97;5042810;28;69369;-34
2021/04/28 05:25:58;;;;;;;7.55;7.00;;;;;;;34.23;50.27;101024.22;5042178;28;66349;-34
2021/04/28 05:28:28;;;;;;;7.57;7.07;;;;;;;34.25;50.34;101016.66;5039297;28;70033;-33
2021/04/28 05:30:58;;;;;;;7.53;7.00;;;;;;;34.31;50.36;101022.22;5029570;28;65359;-33
2021/04/28 05:33:28;;;;;;;7.43;6.93;;;;;;;34.31;50.31;101014.06;5046309;28;69758;-35
2021/04/28 05:35:58;;;;;;;7.22;6.82;;;;;;;34.32;50.00;101007.53;5044173;28;65342;-35
2021/04/28 05:38:28;;;;;;;9.82;7.95;;;;;;;34.30;49.97;100985.16;5054285;28;70223;-34
2021/04/28 05:40:58;;;;;;;8.13;7.43;;;;;;;34.34;50.40;101003.50;5046926;28;65281;-33
2021/04/28 05:43:28;;;;;;;8.63;7.80;;;;;;;34.34;50.35;100986.34;5047897;28;69969;-33
2021/04/28 05:46:00;;;;;;;8.10;7.50;;;;;;;34.36;50.16;100976.84;5048347;28;65440;-33
2021/04/28 05:48:29;;;;;;;;;;;;;;;34.31;50.24;100973.19;5046752;28;70166;-33
2021/04/28 05:50:59;;;;;;;7.40;6.80;;;;;;;34.41;50.00;100978.88;5049892;28;65305;-33
2021/04/28 05:53:29;;;;;;;8.40;7.65;;;;;;;34.44;50.01;100981.91;5042765;28;70289;-33
2021/04/28 05:56:06;;;;;;;11.10;7.30;;;;;;;34.42;49.77;100978.59;5047414;28;65273;-34
2021/04/28 05:58:36;;;;;;;7.85;7.35;;;;;;;34.43;49.98;100969.34;5047855;28;69052;-34
2021/04/28 06:01:06;;;;;;;9.85;7.18;;;;;;;34.46;49.71;100973.50;5050122;28;65717;-34
2021/04/28 06:03:36;;;;;;;8.48;7.78;;;;;;;34.48;49.75;100963.19;5041465;28;69720;-34
2021/04/28 06:06:05;;;;;;;7.43;6.90;;;;;;;34.52;49.69;100960.78;5047683;28;66068;-35
2021/04/28 06:08:36;;;;;;;8.65;7.88;;;;;;;34.51;49.64;100953.72;5045506;28;69807;-34
2021/04/28 06:11:06;;;;;;;8.15;7.38;;;;;;;34.56;49.58;100962.84;5036915;28;65993;-34
2021/04/28 06:13:35;;;;;;;7.03;6.60;;;;;;;34.57;49.70;100953.56;5043895;28;69199;-34
2021/04/28 06:16:05;;;;;;;9.68;6.97;;;;;;;34.59;49.74;100940.56;5044040;28;66397;-33
2021/04/28 06:18:37;;;;;;;7.75;7.20;;;;;;;34.60;49.37;100936.78;5046325;28;69774;-32
2021/04/28 06:21:07;;;;;;;9.00;6.82;;;;;;;34.64;49.78;100932.47;5041485;28;66264;-33
2021/04/28 06:23:39;;;;;;;7.90;7.30;;;;;;;34.61;49.66;100916.63;5041639;28;69948;-33
2021/04/28 06:26:09;;;;;;;7.18;6.78;;;;;;;34.69;48.90;100926.31;5028438;28;65346;-33
2021/04/28 06:28:39;;;;;;;7.80;7.20;;;;;;;34.66;49.01;100914.00;5047969;28;70429;-33
2021/04/28 06:31:09;;;;;;;7.78;7.18;;;;;;;34.70;49.27;100904.25;5045217;28;66142;-34
2021/04/28 06:33:51;;;;;;;;;;;;;;;34.64;49.48;100905.22;5039550;28;69974;-34
2021/04/28 06:36:30;;;;;;;7.95;6.65;;;;;;;34.75;49.46;100894.50;5046458;28;65463;-34
2021/04/28 06:39:01;;;;;;;7.35;6.85;;;;;;;34.78;49.21;100891.28;5044125;28;69042;-35
2021/04/28 06:41:31;;;;;;;7.45;6.93;;;;;;;34.78;49.20;100888.56;5044941;28;65318;-34
2021/04/28 06:44:01;;;;;;;7.47;6.93;;;;;;;34.79;49.14;100879.31;5038977;28;69236;-35
2021/04/28 06:46:31;;;;;;;7.25;6.75;;;;;;;34.83;49.10;100875.03;5043400;28;66113;-35
2021/04/28 06:49:12;;;;;;;8.15;6.88;;;;;;;34.82;49.23;100867.91;5039196;28;69335;-34
2021/04/28 06:51:42;;;;;;;10.98;7.82;;;;;;;34.85;49.04;100867.41;5046260;28;65873;-33
2021/04/28 06:54:12;;;;;;;7.93;7.30;;;;;;;34.87;49.24;100848.94;5035568;28;70023;-34
2021/04/28 06:56:43;;;;;;;8.85;7.97;;;;;;;34.89;48.98;100863.13;5037658;28;66077;-34
2021/04/28 06:59:18;;;;;;;7.78;7.22;;;;;;;34.90;49.17;100849.25;5039727;28;70069;-37
2021/04/28 07:01:52;;;;;;;8.55;7.78;;;;;;;34.91;49.24;100844.66;5040901;28;66751;-33
2021/04/28 07:04:22;;;;;;;8.15;7.43;;;;;;;34.98;48.95;100847.19;5047559;28;70134;-34
2021/04/28 07:06:52;;;;;;;7.93;7.43;;;;;;;34.92;48.83;100832.66;5041312;28;66674;-33
2021/04/28 07:09:22;;;;;;;8.13;7.43;;;;;;;34.99;48.70;100827.84;5046749;28;69675;-33
2021/04/28 07:11:59;;;;;;;8.23;7.60;;;;;;;35.01;48.79;100827.59;5050111;28;65684;-33
2021/04/28 07:14:31;;;;;;;7.93;7.40;;;;;;;35.03;49.05;100828.19;5042322;28;70537;-35
2021/04/28 07:17:02;;;;;;;8.43;7.47;;;;;;;35.05;48.86;100824.13;5042103;28;66687;-36
2021/04/28 07:19:32;;;;;;;9.13;8.30;;;;;;;35.10;48.72;100826.97;5044238;28;69030;-33
2021/04/28 07:22:02;;;;;;;8.00;7.30;;;;;;;35.12;48.92;100830.25;5041998;28;66353;-33
2021/04/28 07:24:34;;;;;;;8.07;7.43;;;;;;;35.14;48.94;100833.56;5046692;28;69853;-36
2021/04/28 07:27:04;;;;;;;7.73;7.07;;;;;;;35.19;48.49;100829.25;5044272;28;65727;-35
2021/04/28 07:29:34;;;;;;;8.38;7.45;;;;;;;35.22;48.51;100826.03;5045500;28;69279;-35
2021/04/28 07:32:04;;;;;;;8.45;7.75;;;;;;;35.23;48.57;100831.22;5037062;28;66000;-35
2021/04/28 07:34:35;;;;;;;10.05;7.50;;;;;;;35.26;48.54;100830.72;5044239;28;69936;-35
2021/04/28 07:37:05;;;;;;;7.97;7.38;;;;;;;35.24;48.39;100827.41;5041404;28;65357;-35
2021/04/28 07:39:35;;;;;;;9.18;7.47;;;;;;;35.31;48.52;100832.72;5042601;28;69319;-35
2021/04/28 07:42:10;;;;;;;8.85;7.28;;;;;;;35.33;48.12;100825.09;5035875;28;66249;-34
2021/04/28 07:44:40;;;;;;;8.13;7.45;;;;;;;35.40;48.11;100820.28;5036451;28;70428;-34
2021/04/28 07:47:10;;;;;;;13.25;7.30;;;;;;;35.41;48.47;100815.63;5042551;28;65383;-34
2021/04/28 07:49:40;;;;;;;7.97;7.30;;;;;;;35.43;48.17;100814.31;5044692;28;69815;-34
2021/04/28 07:52:20;;;;;;;9.63;7.05;;;;;;;35.42;48.42;100811.84;5045877;28;65450;-35
2021/04/28 07:54:50;;;;;;;7.05;6.40;;;;;;;35.45;48.26;100812.16;5049153;28;69995;-34
2021/04/28 07:57:20;;;;;;;8.00;7.30;;;;;;;35.45;48.24;100801.25;5045057;28;65954;-34
2021/04/28 07:59:50;;;;;;;8.15;6.90;;;;;;;35.48;48.03;100799.91;5040392;28;69395;-34
2021/04/28 08:02:20;;;;;;;10.55;6.85;;;;;;;35.49;48.16;100799.66;5042065;28;65728;-34
2021/04/28 08:04:50;;;;;;;6.47;6.03;;;;;;;35.51;48.32;100792.03;5038835;28;69310;-34
2021/04/28 08:07:20;;;;;;;6.90;6.47;;;;;;;35.52;47.94;100790.13;5045511;28;66562;-36
2021/04/28 08:09:51;;;;;;;7.90;6.68;;;;;;;35.55;47.75;100786.91;5042943;28;68598;-35
2021/04/28 08:12:21;;;;;;;8.32;6.70;;;;;;;35.58;47.53;100790.00;5040456;28;65246;-34
2021/04/28 08:14:51;;;;;;;10.27;7.32;;;;;;;35.57;48.06;100788.31;5031737;28;69030;-35
2021/04/28 08:17:21;;;;;;;7.10;6.40;;;;;;;35.57;47.76;100782.88;5047965;28;66140;-35
2021/04/28 08:19:52;;;;;;;7.20;6.53;;;;;;;35.60;48.03;100781.53;5048516;28;69053;-35
2021/04/28 08:22:22;;;;;;;8.40;6.45;;;;;;;35.61;47.77;100774.16;5040992;28;66089;-34
2021/04/28 08:24:53;;;;;;;6.72;6.13;;;;;;;35.51;47.16;100767.50;5045767;28;69970;-35
2021/04/28 08:27:24;;;;;;;6.97;6.43;;;;;;;35.61;47.81;100771.44;5042527;28;67035;-34
2021/04/28 08:29:56;;;;;;;6.97;6.38;;;;;;;35.62;47.68;100773.09;5047373;28;69427;-34
2021/04/28 08:32:27;;;;;;;6.60;6.10;;;;;;;35.62;47.52;100767.66;5021294;28;66790;-34
2021/04/28 08:34:57;;;;;;;6.10;5.60;;;;;;;35.68;47.30;100777.53;5044854;28;69345;-34
2021/04/28 08:37:27;;;;;;;10.98;6.50;;;;;;;35.68;47.45;100777.53;5037883;28;66744;-33
2021/04/28 08:39:57;;;;;;;6.50;6.00;;;;;;;35.65;47.64;100764.41;5038845;28;69203;-32
2021/04/28 08:42:27;;;;;;;7.18;6.47;;;;;;;35.67;47.51;100776.72;5040325;28;65794;-34
2021/04/28 08:44:59;;;;;;;7.90;6.40;;;;;;;35.68;47.36;100778.34;5040397;28;70721;-35
2021/04/28 08:47:29;;;;;;;6.30;5.85;;;;;;;35.70;47.31;100772.66;5042511;28;66158;-34
2021/04/28 08:50:00;;;;;;;10.15;6.75;;;;;;;35.68;47.10;100769.34;5036931;28;69188;-34
2021/04/28 08:52:37;;;;;;;7.38;6.38;;;;;;;35.66;47.17;100768.78;5044160;28;65868;-33
2021/04/28 08:55:13;;;;;;;7.07;6.47;;;;;;;35.70;47.01;100764.47;5041974;28;70517;-34
2021/04/28 08:57:43;;;;;;;9.18;6.18;;;;;;;35.67;47.26;100770.44;5013098;28;66300;-34
2021/04/28 09:00:14;;;;;;;7.95;6.35;;;;;;;35.71;46.84;100777.03;5044439;28;69117;-33
2021/04/28 09:03:10;;;;;;;6.20;5.80;;;;;;;35.61;47.08;100782.34;5040769;28;66855;-34
2021/04/28 09:05:41;;;;;;;7.20;6.55;;;;;;;35.68;46.75;100772.06;5040337;28;69001;-34
2021/04/28 09:08:12;;;;;;;6.88;6.20;;;;;;;35.70;47.40;100783.56;5041455;28;65364;-36
2021/04/28 09:10:43;;;;;;;19.67;7.10;;;;;;;35.74;46.59;100780.06;5048345;28;69119;-33
2021/04/28 09:13:22;;;;;;;15.00;7.53;;;;;;;35.64;46.84;100766.31;5040645;28;67172;-32
2021/04/28 09:15:52;;;;;;;18.17;8.23;;;;;;;35.75;47.08;100772.72;5040253;28;69933;-33
2021/04/28 09:18:36;;;;;;;16.02;7.35;;;;;;;35.71;46.40;100775.13;5037317;28;65670;-33
2021/04/28 09:21:07;;;;;;;10.55;7.28;;;;;;;35.71;46.66;100772.38;5043138;28;70386;-34
2021/04/28 09:23:56;;;;;;;8.25;7.43;;;;;;;35.68;47.19;100772.06;5039475;28;66857;-34
2021/04/28 09:26:47;;;;;;;10.80;7.53;;;;;;;35.65;46.64;100762.50;5042596;28;70157;-34
2021/04/28 09:29:53;;;;;;;23.55;7.70;;;;;;;35.67;46.76;100776.72;5044387;28;66055;-33
2021/04/28 09:33:00;;;;;;;17.25;7.93;;;;;;;35.63;46.84;100780.19;5040467;28;68951;-34
2021/04/28 09:35:31;;;;;;;8.57;6.60;;;;;;;35.69;46.75;100784.63;5043600;28;66780;-33
2021/04/28 09:38:03;;;;;;;12.10;7.07;;;;;;;35.68;46.58;100785.72;5039693;28;70505;-34
2021/04/28 09:41:00;;;;;;;12.52;6.78;;;;;;;35.63;47.04;100791.13;5043923;28;66757;-34
2021/04/28 09:43:37;;;;;;;11.15;7.45;;;;;;;35.67;46.86;100795.00;5041454;28;70708;-34
2021/04/28 09:46:11;;;;;;;12.18;7.18;;;;;;;35.65;46.63;100788.97;5047234;28;65280;-33
2021/04/28 09:48:58;;;;;;;9.02;7.22;;;;;;;35.51;46.77;100772.13;5046025;28;70378;-34
2021/04/28 09:51:36;;;;;;;13.70;7.88;;;;;;;35.49;47.10;100775.09;5046854;28;65027;-34
2021/04/28 09:54:15;;;;;;;15.93;7.55;;;;;;;35.51;46.78;100780.31;5030243;28;70652;-34
2021/04/28 09:56:45;;;;;;;11.20;7.20;;;;;;;35.57;47.13;100787.50;5039573;28;65584;-33
2021/04/28 09:59:15;;;;;;;9.70;7.35;;;;;;;35.60;47.39;100791.63;5032182;28;70339;-33
2021/04/28 10:01:45;;;;;;;8.45;6.90;;;;;;;35.60;47.11;100791.63;5042021;28;65519;-34
2021/04/28 10:04:27;;;;;;;9.07;7.68;;;;;;;35.47;46.98;100771.81;5042686;28;69471;-35
2021/04/28 10:06:58;;;;;;;18.77;10.73;;;;;;;35.58;46.79;100795.44;5036548;28;66311;-34
2021/04/28 10:09:33;;;;;;;22.25;9.80;;;;;;;35.56;46.92;100796.78;5040733;28;70249;-34
2021/04/28 10:12:13;;;;;;;32.57;10.73;;;;;;;35.39;47.17;100785.09;5043335;28;66521;-35
2021/04/28 10:14:43;;;;;;;20.13;10.02;;;;;;;35.13;47.85;100799.22;5035766;28;69566;-36
2021/04/28 10:17:13;;;;;;;33.25;10.55;;;;;;;34.94;48.88;100811.44;5038392;28;66668;-35
2021/04/28 10:19:47;;;;;;;24.95;10.18;;;;;;;34.77;49.13;100805.16;5036092;28;70069;-34
2021/04/28 10:22:20;;;;;;;38.05;10.43;;;;;;;34.62;49.25;100803.84;5038317;28;65995;-34
2021/04/28 10:24:53;;;;;;;24.35;9.85;;;;;;;34.46;48.90;100800.03;5001701;28;69328;-34
2021/04/28 10:27:23;;;;;;;15.73;8.65;;;;;;;34.50;49.32;100822.16;5043429;28;66233;-33
2021/04/28 10:29:55;;;;;;;19.52;8.77;;;;;;;34.43;49.15;100826.91;5038748;28;69751;-33
2021/04/28 10:32:25;;;;;;;11.35;7.97;;;;;;;34.39;49.85;100836.66;5034826;28;65330;-34
2021/04/28 10:35:04;;;;;;;14.82;8.75;;;;;;;34.35;50.31;100827.31;5022306;28;69141;-32
2021/04/28 10:37:36;;;;;;;19.17;8.48;;;;;;;34.25;50.16;100808.91;5036235;28;65330;-33
2021/04/28 10:40:14;;;;;;;14.70;8.18;;;;;;;34.33;50.59;100826.75;5036468;28;70210;-33
2021/04/28 10:42:45;;;;;;;12.63;7.70;;;;;;;34.36;50.74;100828.97;5050554;28;65457;-35
2021/04/28 10:45:23;;;;;;;14.20;8.60;;;;;;;34.33;51.22;100837.66;5042012;28;70192;-34
2021/04/28 10:47:55;;;;;;;15.18;7.75;;;;;;;34.34;51.02;100836.56;5042811;28;65953;-33
2021/04/28 10:50:36;;;;;;;12.23;7.87;;;;;;;34.21;51.26;100819.47;5044683;28;70113;-33
2021/04/28 10:53:07;;;;;;;16.80;7.97;;;;;;;34.30;51.57;100840.84;5041499;28;65295;-33
2021/04/28 10:55:50;;;;;;;19.20;7.40;;;;;;;34.29;51.51;100841.91;5038979;28;69461;-34
2021/04/28 10:58:32;;;;;;;13.13;7.90;;;;;;;34.28;52.00;100845.72;5037342;28;66086;-33
2021/04/28 11:01:05;;;;;;;11.60;7.80;;;;;;;34.30;52.06;100854.44;5032779;28;70133;-33
2021/04/28 11:03:41;;;;;;;14.50;8.45;;;;;;;34.25;52.83;100852.47;5036006;28;66441;-33
2021/04/28 11:06:20;;;;;;;11.02;7.47;;;;;;;34.23;52.63;100849.97;5040246;28;69319;-34
2021/04/28 11:09:00;;;;;;;14.45;8.20;;;;;;;34.19;53.10;100848.00;5037806;28;66094;-33
2021/04/28 11:11:33;;;;;;;9.95;7.90;;;;;;;34.23;52.33;100849.16;5040420;28;69900;-32
2021/04/28 11:14:17;;;;;;;11.63;7.60;;;;;;;34.17;52.91;100855.59;5045811;28;66256;-34
2021/04/28 11:17:22;;;;;;;16.50;7.38;;;;;;;34.20;52.43;100858.66;5038369;28;69642;-32
2021/04/28 11:19:54;;;;;;;14.38;7.63;;;;;;;34.19;52.44;100859.72;5019926;28;65836;-32
2021/04/28 11:22:28;;;;;;;8.25;7.38;;;;;;;34.16;52.62;100860.22;5042061;28;70053;-32
2021/04/28 11:25:07;;;;;;;12.65;7.88;;;;;;;34.10;53.09;100855.75;5038408;28;66550;-34
2021/04/28 11:27:56;;;;;;;11.13;7.45;;;;;;;34.01;53.21;100851.72;5041997;28;69287;-32
2021/04/28 11:30:32;;;;;;;8.32;7.55;;;;;;;34.11;52.77;100868.28;5036189;28;65693;-34
2021/04/28 11:33:25;;;;;;;10.73;7.65;;;;;;;34.10;52.85;100874.81;5033763;28;70222;-37
2021/04/28 11:35:55;;;;;;;8.65;7.63;;;;;;;34.09;52.69;100869.59;5039532;28;65511;-33
2021/04/28 11:38:26;;;;;;;8.30;7.45;;;;;;;34.03;53.03;100880.34;5036862;28;69890;-33
2021/04/28 11:41:09;;;;;;;15.00;7.68;;;;;;;34.05;53.04;100879.31;5037068;28;66073;-31
2021/04/28 11:43:44;;;;;;;9.70;6.90;;;;;;;33.97;53.61;100888.66;5039159;28;69946;-33
2021/04/28 11:46:21;;;;;;;14.50;7.95;;;;;;;33.99;53.02;100878.34;5033513;28;66184;-34
2021/04/28 11:48:56;;;;;;;23.58;8.55;;;;;;;33.76;53.19;100869.16;5042499;28;70613;-32
2021/04/28 11:51:37;;;;;;;28.33;10.10;;;;;;;33.77;53.54;100889.88;5053548;28;65731;-33
2021/04/28 11:54:11;;;;;;;19.98;9.43;;;;;;;33.77;53.24;100889.88;5035637;28;69290;-35
2021/04/28 11:56:48;;;;;;;32.55;9.88;;;;;;;33.64;53.40;100879.25;5037051;28;65784;-33